createdAt,value
2022-11-10T00:09:37.841Z,70.67
2022-11-10T00:20:00.004Z,70.65
2022-11-10T00:30:21.762Z,70.69
2022-11-10T00:40:43.553Z,70.59
2022-11-10T00:51:05.618Z,70.59
2022-11-10T01:01:27.506Z,70.66
2022-11-10T01:11:49.792Z,70.40
2022-11-10T01:22:11.910Z,70.39
2022-11-10T01:32:33.829Z,70.39
2022-11-10T01:42:58.447Z,70.26
2022-11-10T01:53:27.056Z,70.15
2022-11-10T02:04:00.551Z,70.21
2022-11-10T02:14:22.913Z,70.07
2022-11-10T02:24:44.447Z,70.01
2022-11-10T02:35:06.602Z,69.90
2022-11-10T02:45:28.824Z,69.63
2022-11-10T02:55:50.837Z,69.57
2022-11-10T03:06:13.260Z,69.60
2022-11-10T03:16:35.478Z,69.57
2022-11-10T03:26:57.469Z,69.59
2022-11-10T03:37:19.255Z,69.64
2022-11-10T03:47:41.706Z,69.62
2022-11-10T03:58:06.932Z,69.68
2022-11-10T04:08:47.456Z,69.87
2022-11-10T04:19:09.597Z,69.95
2022-11-10T04:29:31.414Z,70.21
2022-11-10T04:39:53.891Z,70.40
2022-11-10T04:50:20.569Z,70.62
2022-11-10T05:00:43.294Z,70.39
2022-11-10T05:11:05.602Z,70.28
2022-11-10T05:21:27.429Z,70.13
2022-11-10T05:31:51.861Z,70.05
2022-11-10T05:42:16.238Z,70.09
2022-11-10T05:52:50.164Z,69.97
2022-11-10T06:03:19.915Z,69.87
2022-11-10T06:13:42.402Z,69.86
2022-11-10T06:24:04.592Z,69.69
2022-11-10T06:34:29.314Z,69.77
2022-11-10T06:44:51.322Z,69.65
2022-11-10T06:55:13.335Z,69.68
2022-11-10T07:05:38.827Z,69.72
2022-11-10T07:16:08.059Z,69.39
2022-11-10T07:26:29.937Z,69.26
2022-11-10T07:36:51.961Z,69.14
2022-11-10T07:47:13.797Z,68.59
2022-11-10T07:57:35.759Z,68.34
2022-11-10T08:07:57.957Z,67.83
2022-11-10T08:18:23.094Z,67.44
2022-11-10T08:28:45.394Z,67.26
2022-11-10T08:39:07.346Z,66.88
2022-11-10T08:49:29.261Z,66.50
2022-11-10T08:59:51.317Z,65.72
2022-11-10T09:10:16.102Z,65.15
2022-11-10T09:20:39.306Z,65.00
2022-11-10T09:31:01.329Z,64.99
2022-11-10T09:41:23.244Z,64.63
2022-11-10T09:51:48.435Z,63.84
2022-11-10T10:02:29.894Z,62.90
2022-11-10T10:13:14.435Z,62.87
2022-11-10T10:24:07.797Z,62.95
2022-11-10T10:34:31.759Z,63.10
2022-11-10T10:45:12.364Z,63.35
2022-11-10T10:55:36.510Z,63.93
2022-11-10T11:06:06.249Z,63.80
2022-11-10T11:16:28.534Z,63.66
2022-11-10T11:27:04.443Z,63.02
2022-11-10T11:38:08.374Z,62.43
2022-11-10T11:48:53.885Z,62.22
2022-11-10T11:59:34.587Z,61.99
2022-11-10T12:10:47.934Z,61.85
2022-11-10T12:21:54.425Z,62.03
2022-11-10T12:32:25.899Z,62.03
2022-11-10T12:42:56.746Z,62.29
2022-11-10T12:53:24.819Z,62.38
2022-11-10T13:04:01.357Z,62.45
2022-11-10T13:14:29.933Z,62.39
2022-11-10T13:24:52.034Z,62.95
2022-11-10T13:35:29.247Z,64.98
2022-11-10T13:46:00.688Z,65.75
2022-11-10T13:56:32.323Z,66.28
2022-11-10T14:06:56.274Z,66.42
2022-11-10T14:17:23.712Z,66.75
2022-11-10T14:27:45.943Z,67.45
2022-11-10T14:38:36.047Z,67.83
2022-11-10T14:49:00.002Z,68.08
2022-11-10T14:59:24.613Z,68.35
2022-11-10T15:10:17.600Z,68.92
2022-11-10T15:20:41.422Z,69.56
2022-11-10T15:31:10.153Z,69.89
2022-11-10T15:41:35.014Z,69.86
2022-11-10T15:52:00.842Z,70.09
2022-11-10T16:02:25.410Z,70.23
2022-11-10T16:12:47.723Z,70.18
2022-11-10T16:23:09.838Z,70.52
2022-11-10T16:33:31.868Z,70.86
2022-11-10T16:43:53.837Z,70.89
2022-11-10T16:54:16.630Z,70.77
2022-11-10T17:04:38.940Z,71.09
2022-11-10T17:15:00.930Z,71.45
2022-11-10T17:25:29.185Z,71.88
2022-11-10T17:35:52.882Z,72.04
2022-11-10T17:46:15.699Z,72.18
2022-11-10T17:56:37.861Z,72.04
2022-11-10T18:07:00.197Z,71.92
2022-11-10T18:17:22.378Z,71.73
2022-11-10T18:27:44.614Z,71.34
2022-11-10T18:38:09.134Z,71.32
2022-11-10T18:48:36.996Z,71.18
2022-11-10T18:58:59.305Z,71.09
2022-11-10T19:09:21.361Z,70.77
2022-11-10T19:19:43.254Z,70.47
2022-11-10T19:30:07.259Z,70.47
2022-11-10T19:40:30.120Z,70.37
2022-11-10T19:50:56.417Z,70.87
2022-11-10T20:01:19.966Z,71.04
2022-11-10T20:11:41.796Z,71.14
2022-11-10T20:22:03.811Z,71.31
2022-11-10T20:32:26.919Z,71.35
2022-11-10T20:42:49.057Z,71.51
2022-11-10T20:53:11.338Z,71.90
2022-11-10T21:03:33.929Z,72.31
2022-11-10T21:13:56.235Z,72.48
2022-11-10T21:24:18.328Z,72.43
2022-11-10T21:34:40.654Z,72.37
2022-11-10T21:45:02.645Z,72.35
2022-11-10T21:55:24.862Z,72.89
2022-11-10T22:05:47.005Z,73.34
2022-11-10T22:16:52.286Z,73.62
2022-11-10T22:27:14.603Z,73.91
2022-11-10T22:37:37.576Z,74.41
2022-11-10T22:48:18.090Z,74.67
2022-11-10T22:58:40.585Z,74.52
2022-11-10T23:09:03.473Z,74.54
2022-11-10T23:19:25.448Z,74.62
2022-11-10T23:29:47.478Z,74.91
2022-11-10T23:40:10.222Z,75.28
2022-11-10T23:50:33.577Z,75.46
